Time;durP1;ratioP1;P1;durP2;ratioP2;P2;SDS_P1;SDS_P2;PMS_P1;PMS_P2;Temp;Humidity;BMP_temperature;BMP_pressure;BME280_temperature;BME280_humidity;BME280_pressure;Samples;Min_cycle;Max_cycle;Signal;HPM_P1;HPM_P2
2022/08/15 00:00:16;;;;;;;2.50;2.40;;;;;;;;;;5043403;28;20049;-58
2022/08/15 00:02:43;;;;;;;2.70;2.50;;;;;;;;;;5042558;28;20041;-58
2022/08/15 00:05:13;;;;;;;2.70;2.50;;;;;;;;;;5042388;28;20041;-57
2022/08/15 00:07:39;;;;;;;2.58;2.38;;;;;;;;;;5043555;28;20399;-56
2022/08/15 00:10:06;;;;;;;2.90;2.70;;;;;;;;;;5043530;28;20156;-55
2022/08/15 00:12:32;;;;;;;2.53;2.38;;;;;;;;;;5044654;28;20045;-59
2022/08/15 00:14:58;;;;;;;2.85;2.65;;;;;;;;;;5043764;28;20079;-58
2022/08/15 00:17:25;;;;;;;3.58;2.38;;;;;;;;;;5044272;28;20473;-57
2022/08/15 00:19:51;;;;;;;2.60;2.42;;;;;;;;;;5043638;28;20163;-59
2022/08/15 00:22:18;;;;;;;2.33;2.13;;;;;;;;;;5043892;28;21020;-55
2022/08/15 00:24:46;;;;;;;2.05;1.95;;;;;;;;;;5025941;28;20053;-57
2022/08/15 00:27:12;;;;;;;2.33;2.13;;;;;;;;;;5044692;28;20051;-57
2022/08/15 00:29:38;;;;;;;2.25;2.05;;;;;;;;;;5043003;28;20041;-59
2022/08/15 00:32:09;;;;;;;2.50;2.40;;;;;;;;;;5043493;28;20132;-55
2022/08/15 00:34:35;;;;;;;2.33;2.23;;;;;;;;;;5043824;28;20052;-56
2022/08/15 00:37:02;;;;;;;2.60;2.40;;;;;;;;;;5042471;28;20041;-57
2022/08/15 00:39:28;;;;;;;2.90;2.70;;;;;;;;;;5044193;28;20048;-56
2022/08/15 00:41:56;;;;;;;2.35;2.25;;;;;;;;;;5043516;28;20045;-62
2022/08/15 00:44:25;;;;;;;2.70;2.50;;;;;;;;;;5042943;28;20123;-59
2022/08/15 00:47:01;;;;;;;2.90;2.70;;;;;;;;;;5043475;28;20403;-57
2022/08/15 00:49:28;;;;;;;3.05;2.50;;;;;;;;;;5043774;28;20095;-54
2022/08/15 00:51:59;;;;;;;2.88;2.67;;;;;;;;;;5036500;28;20067;-54
2022/08/15 00:54:27;;;;;;;2.75;2.40;;;;;;;;;;5035214;28;20549;-60
2022/08/15 00:56:56;;;;;;;2.63;2.42;;;;;;;;;;5034314;28;20132;-57
2022/08/15 00:59:24;;;;;;;2.55;2.38;;;;;;;;;;5034597;28;20118;-59
2022/08/15 01:01:51;;;;;;;2.85;2.65;;;;;;;;;;5029558;28;20056;-57
2022/08/15 01:04:18;;;;;;;2.75;2.55;;;;;;;;;;5030665;28;20043;-58
2022/08/15 01:06:45;;;;;;;2.90;2.35;;;;;;;;;;5034399;28;20413;-59
2022/08/15 01:09:12;;;;;;;2.85;2.65;;;;;;;;;;5031763;28;20452;-59
2022/08/15 01:11:44;;;;;;;2.60;2.40;;;;;;;;;;5032192;28;20045;-56
2022/08/15 01:14:10;;;;;;;2.25;2.15;;;;;;;;;;5033424;28;20129;-55
2022/08/15 01:16:40;;;;;;;2.80;2.60;;;;;;;;;;5034821;28;20116;-58
2022/08/15 01:19:13;;;;;;;3.72;2.33;;;;;;;;;;5034499;28;20052;-57
2022/08/15 01:22:00;;;;;;;2.53;2.33;;;;;;;;;;5030140;28;20437;-55
2022/08/15 01:24:39;;;;;;;2.25;2.15;;;;;;;;;;5032751;28;20131;-55
2022/08/15 01:27:05;;;;;;;2.05;1.95;;;;;;;;;;5034069;28;20052;-54
2022/08/15 01:29:32;;;;;;;2.13;2.03;;;;;;;;;;5034307;28;20041;-54
2022/08/15 01:31:58;;;;;;;2.30;2.10;;;;;;;;;;5031717;28;20085;-55
2022/08/15 01:34:24;;;;;;;2.78;2.58;;;;;;;;;;5034544;28;20033;-57
2022/08/15 01:36:50;;;;;;;2.40;2.30;;;;;;;;;;5012248;28;20081;-59
2022/08/15 01:39:24;;;;;;;2.80;2.60;;;;;;;;;;5029772;28;20539;-59
2022/08/15 01:42:02;;;;;;;2.90;2.70;;;;;;;;;;5032972;28;20060;-62
2022/08/15 01:44:35;;;;;;;2.53;2.33;;;;;;;;;;5034924;28;20046;-54
2022/08/15 01:47:21;;;;;;;3.08;2.88;;;;;;;;;;5030079;28;20052;-54
2022/08/15 01:50:16;;;;;;;2.45;2.35;;;;;;;;;;5027923;28;20048;-54
2022/08/15 01:53:02;;;;;;;2.85;2.65;;;;;;;;;;4964858;28;20058;-59
2022/08/15 01:55:37;;;;;;;2.42;2.33;;;;;;;;;;4992094;28;20513;-57
2022/08/15 01:58:05;;;;;;;2.30;2.20;;;;;;;;;;5041602;28;20044;-55
2022/08/15 02:00:31;;;;;;;2.88;2.67;;;;;;;;;;5042640;28;20068;-58
2022/08/15 02:02:58;;;;;;;2.90;2.70;;;;;;;;;;5041579;28;20045;-54
2022/08/15 02:05:24;;;;;;;2.47;2.33;;;;;;;;;;5043119;28;20043;-57
2022/08/15 02:07:50;;;;;;;2.30;2.17;;;;;;;;;;5042800;28;20045;-63
2022/08/15 02:10:16;;;;;;;2.10;2.00;;;;;;;;;;5042502;28;20120;-59
2022/08/15 02:12:42;;;;;;;2.67;2.47;;;;;;;;;;5042100;28;20071;-59
2022/08/15 02:15:12;;;;;;;2.70;2.50;;;;;;;;;;5023622;28;20049;-58
2022/08/15 02:17:38;;;;;;;2.40;2.30;;;;;;;;;;5042864;28;20072;-57
2022/08/15 02:20:05;;;;;;;2.63;2.42;;;;;;;;;;5042465;28;20050;-56
2022/08/15 02:22:31;;;;;;;2.90;2.70;;;;;;;;;;5041865;28;20045;-54
2022/08/15 02:24:58;;;;;;;2.33;2.22;;;;;;;;;;5042104;28;20132;-57
2022/08/15 02:27:24;;;;;;;2.65;2.50;;;;;;;;;;5042849;28;20083;-57
2022/08/15 02:29:50;;;;;;;2.75;2.55;;;;;;;;;;5041915;28;20044;-57
2022/08/15 02:32:17;;;;;;;2.80;2.60;;;;;;;;;;5043313;28;20052;-59
2022/08/15 02:34:45;;;;;;;3.15;2.58;;;;;;;;;;5040513;28;20052;-59
2022/08/15 02:37:18;;;;;;;2.80;2.60;;;;;;;;;;5041237;28;20132;-57
2022/08/15 02:39:44;;;;;;;2.42;2.30;;;;;;;;;;5042006;28;20489;-62
2022/08/15 02:42:11;;;;;;;2.60;2.40;;;;;;;;;;5042412;28;20140;-54
2022/08/15 02:44:37;;;;;;;2.70;2.50;;;;;;;;;;5041926;28;20136;-55
2022/08/15 02:47:03;;;;;;;2.70;2.50;;;;;;;;;;5042059;28;20048;-55
2022/08/15 02:49:29;;;;;;;3.13;2.92;;;;;;;;;;5042568;28;20072;-54
2022/08/15 02:51:56;;;;;;;3.30;3.00;;;;;;;;;;5040154;28;20076;-56
2022/08/15 02:54:26;;;;;;;3.30;3.10;;;;;;;;;;5042368;28;20037;-57
2022/08/15 02:56:52;;;;;;;3.08;2.88;;;;;;;;;;5039339;28;20060;-57
2022/08/15 02:59:18;;;;;;;2.78;2.58;;;;;;;;;;5045209;28;20099;-57
2022/08/15 03:01:44;;;;;;;3.22;3.03;;;;;;;;;;5046358;28;20509;-58
2022/08/15 03:04:13;;;;;;;2.83;2.63;;;;;;;;;;5046094;28;20045;-54
2022/08/15 03:06:39;;;;;;;2.60;2.40;;;;;;;;;;5045443;28;20497;-58
2022/08/15 03:09:07;;;;;;;2.60;2.40;;;;;;;;;;5045393;28;20049;-52
2022/08/15 03:11:38;;;;;;;2.63;2.45;;;;;;;;;;5044317;28;20041;-56
2022/08/15 03:14:07;;;;;;;2.50;2.40;;;;;;;;;;5044831;28;20110;-57
2022/08/15 03:16:37;;;;;;;2.80;2.60;;;;;;;;;;5046068;28;20063;-54
2022/08/15 03:19:04;;;;;;;2.78;2.58;;;;;;;;;;5044625;28;20512;-57
2022/08/15 03:21:30;;;;;;;3.00;2.80;;;;;;;;;;5045820;28;20650;-56
2022/08/15 03:23:56;;;;;;;3.13;2.90;;;;;;;;;;5044789;28;20067;-57
2022/08/15 03:26:25;;;;;;;3.10;2.90;;;;;;;;;;5045452;28;20041;-54
2022/08/15 03:28:51;;;;;;;2.45;2.25;;;;;;;;;;5044098;28;20562;-57
2022/08/15 03:31:17;;;;;;;2.45;2.28;;;;;;;;;;5045907;28;20064;-57
2022/08/15 03:33:46;;;;;;;2.67;2.47;;;;;;;;;;5044718;28;20053;-59
2022/08/15 03:36:13;;;;;;;2.25;2.15;;;;;;;;;;5045067;28;20053;-55
2022/08/15 03:38:39;;;;;;;2.20;2.10;;;;;;;;;;5044261;28;20126;-54
2022/08/15 03:41:08;;;;;;;2.30;2.20;;;;;;;;;;5044089;28;20072;-57
2022/08/15 03:43:36;;;;;;;2.75;2.55;;;;;;;;;;5027470;28;20553;-54
2022/08/15 03:46:03;;;;;;;2.75;2.55;;;;;;;;;;5044932;28;20407;-54
2022/08/15 03:48:31;;;;;;;2.60;2.40;;;;;;;;;;5044487;28;20045;-52
2022/08/15 03:50:58;;;;;;;2.10;2.00;;;;;;;;;;5044450;28;20514;-57
2022/08/15 03:53:25;;;;;;;2.60;2.40;;;;;;;;;;5045706;28;20706;-54
2022/08/15 03:55:51;;;;;;;2.13;2.00;;;;;;;;;;5044388;28;20037;-53
2022/08/15 03:58:17;;;;;;;2.83;2.63;;;;;;;;;;5045792;28;20044;-58
2022/08/15 04:00:47;;;;;;;2.60;2.40;;;;;;;;;;5044390;28;20049;-54
2022/08/15 04:03:14;;;;;;;2.00;1.90;;;;;;;;;;5043850;28;20056;-57
2022/08/15 04:05:41;;;;;;;2.20;2.10;;;;;;;;;;5045226;28;20048;-57
2022/08/15 04:08:08;;;;;;;2.47;2.28;;;;;;;;;;5042282;28;20045;-57
2022/08/15 04:10:35;;;;;;;2.25;2.13;;;;;;;;;;5042817;28;20068;-57
2022/08/15 04:13:01;;;;;;;2.35;2.17;;;;;;;;;;5043750;28;20053;-55
2022/08/15 04:15:28;;;;;;;2.75;2.58;;;;;;;;;;5043338;28;20036;-56
2022/08/15 04:17:54;;;;;;;2.83;2.63;;;;;;;;;;5044496;28;20048;-58
2022/08/15 04:20:20;;;;;;;2.97;2.78;;;;;;;;;;5045443;28;20041;-57
2022/08/15 04:22:49;;;;;;;2.95;2.75;;;;;;;;;;5044665;28;20061;-57
2022/08/15 04:25:25;;;;;;;3.15;2.95;;;;;;;;;;5044914;28;20099;-54
2022/08/15 04:27:52;;;;;;;3.13;2.92;;;;;;;;;;5044381;28;20049;-58
2022/08/15 04:30:18;;;;;;;3.30;3.10;;;;;;;;;;5044902;28;20037;-57
2022/08/15 04:32:44;;;;;;;3.50;3.20;;;;;;;;;;5043283;28;20044;-58
2022/08/15 04:35:11;;;;;;;3.08;2.88;;;;;;;;;;5044303;28;20380;-55
2022/08/15 04:37:39;;;;;;;2.83;2.63;;;;;;;;;;5043582;28;20041;-55
2022/08/15 04:40:06;;;;;;;2.75;2.55;;;;;;;;;;5043405;28;20056;-55
2022/08/15 04:42:32;;;;;;;2.80;2.60;;;;;;;;;;5043498;28;20041;-54
2022/08/15 04:44:58;;;;;;;3.10;2.90;;;;;;;;;;5042691;28;20045;-56
2022/08/15 04:47:24;;;;;;;2.75;2.55;;;;;;;;;;5042320;28;20098;-55
2022/08/15 04:49:50;;;;;;;3.15;2.95;;;;;;;;;;5043865;28;20530;-58
2022/08/15 04:52:18;;;;;;;3.17;2.97;;;;;;;;;;5044365;28;20049;-57
2022/08/15 04:54:45;;;;;;;2.47;2.38;;;;;;;;;;5043414;28;20413;-55
2022/08/15 04:57:12;;;;;;;2.92;2.72;;;;;;;;;;5042584;28;20202;-56
2022/08/15 04:59:39;;;;;;;2.75;2.55;;;;;;;;;;5043564;28;21074;-55
2022/08/15 05:02:06;;;;;;;2.90;2.70;;;;;;;;;;5041826;28;20049;-53
2022/08/15 05:04:33;;;;;;;3.22;2.97;;;;;;;;;;5041218;28;20048;-54
2022/08/15 05:06:59;;;;;;;2.47;2.28;;;;;;;;;;5043450;28;20045;-54
2022/08/15 05:09:25;;;;;;;3.10;2.90;;;;;;;;;;5043576;28;20040;-59
2022/08/15 05:11:51;;;;;;;2.63;2.42;;;;;;;;;;5040605;28;20667;-54
2022/08/15 05:14:18;;;;;;;2.70;2.60;;;;;;;;;;5044393;28;20041;-57
2022/08/15 05:16:44;;;;;;;2.92;2.72;;;;;;;;;;5043648;28;20138;-58
2022/08/15 05:19:10;;;;;;;3.00;2.80;;;;;;;;;;5043578;28;20116;-54
2022/08/15 05:21:38;;;;;;;2.72;2.53;;;;;;;;;;5040844;28;20528;-57
2022/08/15 05:24:04;;;;;;;2.70;2.50;;;;;;;;;;5041972;28;20464;-57
2022/08/15 05:26:30;;;;;;;3.00;2.72;;;;;;;;;;5040753;28;20064;-56
2022/08/15 05:28:57;;;;;;;2.30;2.20;;;;;;;;;;5042893;28;20076;-55
2022/08/15 05:31:22;;;;;;;2.20;2.10;;;;;;;;;;5041218;28;20055;-57
2022/08/15 05:33:48;;;;;;;2.45;2.35;;;;;;;;;;5042590;28;20049;-56
2022/08/15 05:36:16;;;;;;;2.00;1.90;;;;;;;;;;5043927;28;20549;-56
2022/08/15 05:38:46;;;;;;;1.90;1.80;;;;;;;;;;5043128;28;20052;-56
2022/08/15 05:41:31;;;;;;;2.20;2.10;;;;;;;;;;5041605;28;20055;-54
2022/08/15 05:44:03;;;;;;;2.25;2.10;;;;;;;;;;5041749;28;20175;-54
2022/08/15 05:46:48;;;;;;;2.20;2.00;;;;;;;;;;5042042;28;20037;-57
2022/08/15 05:49:21;;;;;;;1.80;1.70;;;;;;;;;;5042276;28;20932;-57
2022/08/15 05:51:56;;;;;;;2.15;1.95;;;;;;;;;;5042026;28;20052;-57
2022/08/15 05:54:33;;;;;;;2.35;2.15;;;;;;;;;;5042510;28;20045;-54
2022/08/15 05:57:02;;;;;;;2.20;2.10;;;;;;;;;;5042742;28;20043;-54
2022/08/15 05:59:34;;;;;;;2.30;2.20;;;;;;;;;;5040822;28;20047;-53
2022/08/15 06:02:05;;;;;;;2.10;2.00;;;;;;;;;;5039935;28;20084;-54
2022/08/15 06:04:38;;;;;;;1.80;1.70;;;;;;;;;;5041397;28;20037;-57
2022/08/15 06:07:06;;;;;;;1.90;1.80;;;;;;;;;;5042561;28;20053;-54
2022/08/15 06:09:32;;;;;;;2.53;2.35;;;;;;;;;;5041944;28;20037;-55
2022/08/15 06:11:59;;;;;;;2.20;2.10;;;;;;;;;;5041695;28;20041;-57
2022/08/15 06:14:31;;;;;;;2.17;1.98;;;;;;;;;;5041194;28;20041;-55
2022/08/15 06:17:00;;;;;;;2.28;1.90;;;;;;;;;;5040842;28;20045;-54
2022/08/15 06:19:39;;;;;;;1.90;1.80;;;;;;;;;;5041757;28;20049;-55
2022/08/15 06:22:13;;;;;;;2.83;2.63;;;;;;;;;;5040307;28;20895;-54
2022/08/15 06:24:39;;;;;;;2.80;2.60;;;;;;;;;;5039486;28;20049;-55
2022/08/15 06:27:20;;;;;;;2.63;2.42;;;;;;;;;;5042395;28;20508;-57
2022/08/15 06:29:55;;;;;;;2.10;2.00;;;;;;;;;;5039966;28;20041;-61
2022/08/15 06:32:47;;;;;;;2.00;1.90;;;;;;;;;;5040587;28;20029;-58
2022/08/15 06:35:40;;;;;;;2.28;2.17;;;;;;;;;;5039239;28;20547;-54
2022/08/15 06:38:18;;;;;;;1.73;1.63;;;;;;;;;;5042651;28;20462;-56
2022/08/15 06:40:47;;;;;;;1.85;1.75;;;;;;;;;;5045676;28;20075;-55
2022/08/15 06:43:13;;;;;;;2.20;1.83;;;;;;;;;;5045176;28;20057;-54
2022/08/15 06:45:41;;;;;;;2.30;2.20;;;;;;;;;;5045530;28;20047;-55
2022/08/15 06:48:09;;;;;;;2.03;1.92;;;;;;;;;;5046001;28;20049;-54
2022/08/15 06:50:38;;;;;;;1.80;1.70;;;;;;;;;;5043673;28;20118;-54
2022/08/15 06:53:06;;;;;;;2.00;1.90;;;;;;;;;;5036396;28;20041;-57
2022/08/15 06:55:39;;;;;;;2.67;2.47;;;;;;;;;;5034702;28;20094;-54
2022/08/15 06:58:11;;;;;;;2.95;2.75;;;;;;;;;;5033074;28;20041;-54
2022/08/15 07:00:40;;;;;;;3.58;3.38;;;;;;;;;;5035500;28;20090;-57
2022/08/15 07:03:25;;;;;;;3.35;3.15;;;;;;;;;;5035853;28;20051;-54
2022/08/15 07:05:56;;;;;;;3.33;3.13;;;;;;;;;;5029267;28;20589;-55
2022/08/15 07:08:30;;;;;;;3.88;3.58;;;;;;;;;;5036956;28;20708;-54
2022/08/15 07:10:59;;;;;;;3.60;3.30;;;;;;;;;;5031468;28;20115;-57
2022/08/15 07:13:26;;;;;;;3.47;3.28;;;;;;;;;;5033711;28;20132;-64
2022/08/15 07:15:56;;;;;;;4.93;4.43;;;;;;;;;;5026905;28;20048;-60
2022/08/15 07:18:25;;;;;;;4.40;4.07;;;;;;;;;;5030863;28;20087;-57
2022/08/15 07:20:59;;;;;;;4.47;4.10;;;;;;;;;;5035902;28;20091;-55
2022/08/15 07:23:30;;;;;;;3.92;3.63;;;;;;;;;;5035060;28;20045;-64
2022/08/15 07:26:00;;;;;;;3.47;2.80;;;;;;;;;;5031291;28;20072;-56
2022/08/15 07:28:28;;;;;;;3.92;3.63;;;;;;;;;;5022224;28;20076;-52
2022/08/15 07:31:05;;;;;;;4.57;4.18;;;;;;;;;;5031050;28;20055;-56
2022/08/15 07:33:34;;;;;;;3.70;3.40;;;;;;;;;;5026262;28;20049;-56
2022/08/15 07:36:06;;;;;;;3.92;3.63;;;;;;;;;;5038631;28;20045;-55
2022/08/15 07:38:32;;;;;;;3.85;3.55;;;;;;;;;;5034858;28;20052;-55
2022/08/15 07:41:24;;;;;;;4.25;3.95;;;;;;;;;;5032880;28;20165;-57
2022/08/15 07:44:14;;;;;;;3.90;3.60;;;;;;;;;;5026145;28;20057;-62
2022/08/15 07:46:44;;;;;;;3.40;3.13;;;;;;;;;;5021824;28;20694;-54
2022/08/15 07:49:10;;;;;;;3.15;2.95;;;;;;;;;;5036730;28;20596;-54
2022/08/15 07:51:41;;;;;;;3.45;3.25;;;;;;;;;;5037582;28;20140;-58
2022/08/15 07:54:22;;;;;;;3.58;3.28;;;;;;;;;;5019892;28;20049;-57
2022/08/15 07:56:51;;;;;;;3.58;3.38;;;;;;;;;;5010212;28;20050;-53
2022/08/15 07:59:22;;;;;;;3.78;3.47;;;;;;;;;;5040284;28;20049;-58
2022/08/15 08:01:50;;;;;;;4.68;4.38;;;;;;;;;;5027350;28;20052;-54
2022/08/15 08:04:21;;;;;;;5.22;4.82;;;;;;;;;;5028292;28;20041;-56
2022/08/15 08:07:01;;;;;;;5.03;4.40;;;;;;;;;;5032943;28;20058;-59
2022/08/15 08:09:30;;;;;;;5.38;4.90;;;;;;;;;;5030585;28;20052;-54
2022/08/15 08:12:09;;;;;;;4.35;4.05;;;;;;;;;;5006039;28;20085;-61
2022/08/15 08:14:54;;;;;;;4.25;3.95;;;;;;;;;;5040200;28;20037;-54
2022/08/15 08:17:31;;;;;;;4.10;3.80;;;;;;;;;;5032190;28;20045;-56
2022/08/15 08:20:03;;;;;;;4.40;4.10;;;;;;;;;;5037888;28;20091;-58
2022/08/15 08:22:49;;;;;;;4.50;4.20;;;;;;;;;;5039779;28;20087;-58
2022/08/15 08:25:34;;;;;;;3.88;3.58;;;;;;;;;;5033765;28;20552;-60
2022/08/15 08:28:18;;;;;;;3.80;3.60;;;;;;;;;;5033322;28;20490;-53
2022/08/15 08:31:03;;;;;;;3.75;3.45;;;;;;;;;;5031482;28;20053;-56
2022/08/15 08:33:40;;;;;;;3.55;3.25;;;;;;;;;;5019612;28;20045;-55
2022/08/15 08:36:18;;;;;;;4.18;3.88;;;;;;;;;;5024683;28;20476;-55
2022/08/15 08:38:46;;;;;;;3.47;3.28;;;;;;;;;;5012090;28;20057;-59
2022/08/15 08:43:59;;;;;;;2.90;2.70;;;;;;;;;;5024580;28;20049;-59
2022/08/15 08:46:35;;;;;;;3.55;3.25;;;;;;;;;;5025483;28;20038;-56
2022/08/15 08:49:10;;;;;;;4.03;3.72;;;;;;;;;;5024760;28;20498;-57
2022/08/15 08:51:43;;;;;;;5.30;4.05;;;;;;;;;;5036572;28;20116;-53
2022/08/15 08:54:29;;;;;;;3.88;3.58;;;;;;;;;;5037235;28;20103;-60
2022/08/15 08:57:00;;;;;;;3.90;3.60;;;;;;;;;;5036735;28;20049;-64
2022/08/15 08:59:39;;;;;;;3.92;3.63;;;;;;;;;;5045193;28;20073;-56
2022/08/15 09:02:18;;;;;;;4.13;3.83;;;;;;;;;;5041261;28;20044;-54
2022/08/15 09:04:47;;;;;;;5.30;4.80;;;;;;;;;;5044052;28;20701;-53
2022/08/15 09:07:16;;;;;;;4.40;4.10;;;;;;;;;;5042295;28;20042;-60
2022/08/15 09:09:43;;;;;;;4.35;4.05;;;;;;;;;;5045524;28;20123;-53
2022/08/15 09:14:55;;;;;;;4.38;4.07;;;;;;;;;;5040341;28;20049;-57
2022/08/15 09:17:22;;;;;;;3.72;3.53;;;;;;;;;;5044860;28;20521;-58
2022/08/15 09:20:01;;;;;;;5.40;5.00;;;;;;;;;;5045108;28;20047;-60
2022/08/15 09:22:26;;;;;;;5.60;5.10;;;;;;;;;;5044986;28;20509;-57
2022/08/15 09:24:53;;;;;;;4.47;3.95;;;;;;;;;;5045612;28;20044;-56
2022/08/15 09:27:23;;;;;;;4.20;3.90;;;;;;;;;;5045625;28;20370;-60
2022/08/15 09:30:01;;;;;;;4.95;4.65;;;;;;;;;;5045561;28;20053;-56
2022/08/15 09:32:27;;;;;;;4.38;3.97;;;;;;;;;;5045569;28;20041;-54
2022/08/15 09:35:12;;;;;;;4.68;4.38;;;;;;;;;;5045984;28;20409;-60
2022/08/15 09:37:54;;;;;;;5.05;4.55;;;;;;;;;;5043689;28;20456;-61
2022/08/15 09:40:20;;;;;;;3.88;3.58;;;;;;;;;;5037900;28;20046;-58
2022/08/15 09:42:55;;;;;;;4.78;4.32;;;;;;;;;;5034768;28;20052;-59
2022/08/15 09:45:21;;;;;;;5.20;4.70;;;;;;;;;;5031636;28;20053;-55
2022/08/15 09:48:11;;;;;;;4.72;4.32;;;;;;;;;;5040328;28;20086;-57
2022/08/15 09:50:43;;;;;;;3.50;3.30;;;;;;;;;;4993630;28;20059;-54
2022/08/15 09:53:09;;;;;;;3.95;3.65;;;;;;;;;;5034612;28;20053;-58
2022/08/15 09:55:46;;;;;;;3.60;3.40;;;;;;;;;;5046678;28;20115;-51
2022/08/15 09:58:26;;;;;;;3.75;3.30;;;;;;;;;;5041314;28;20041;-57
2022/08/15 10:00:59;;;;;;;4.78;4.38;;;;;;;;;;5039192;28;20094;-55
2022/08/15 10:03:45;;;;;;;4.13;3.80;;;;;;;;;;5036959;28;20128;-55
2022/08/15 10:06:13;;;;;;;3.67;3.45;;;;;;;;;;5035276;28;20134;-58
2022/08/15 10:09:01;;;;;;;3.65;3.45;;;;;;;;;;5030970;28;20048;-54
2022/08/15 10:11:54;;;;;;;3.65;3.45;;;;;;;;;;4995577;28;20053;-53
2022/08/15 10:14:20;;;;;;;4.60;4.20;;;;;;;;;;5031629;28;20550;-58
2022/08/15 10:16:50;;;;;;;3.70;3.50;;;;;;;;;;5036241;28;20190;-60
2022/08/15 10:19:29;;;;;;;4.40;4.03;;;;;;;;;;5032601;28;20076;-54
2022/08/15 10:21:55;;;;;;;4.15;3.85;;;;;;;;;;5029834;28;20096;-60
2022/08/15 10:24:23;;;;;;;5.80;5.30;;;;;;;;;;5034711;28;20041;-54
2022/08/15 10:27:08;;;;;;;4.55;4.25;;;;;;;;;;5032858;28;20036;-57
2022/08/15 10:29:35;;;;;;;5.32;4.93;;;;;;;;;;5035256;28;20048;-54
2022/08/15 10:32:03;;;;;;;5.70;5.30;;;;;;;;;;5037200;28;20045;-54
2022/08/15 10:34:35;;;;;;;5.55;5.05;;;;;;;;;;5034334;28;20037;-58
2022/08/15 10:37:20;;;;;;;5.15;4.78;;;;;;;;;;5042405;28;20049;-54
2022/08/15 10:39:49;;;;;;;5.93;5.30;;;;;;;;;;5037254;28;20055;-60
2022/08/15 10:42:21;;;;;;;5.15;4.78;;;;;;;;;;5034787;28;20045;-53
2022/08/15 10:44:52;;;;;;;5.30;4.80;;;;;;;;;;5024938;28;20088;-55
2022/08/15 10:47:24;;;;;;;6.35;5.78;;;;;;;;;;5035560;28;20534;-56
2022/08/15 10:50:00;;;;;;;4.45;4.15;;;;;;;;;;5031017;28;20050;-61
2022/08/15 10:52:27;;;;;;;6.75;5.65;;;;;;;;;;5041191;28;20057;-54
2022/08/15 10:54:56;;;;;;;6.43;5.93;;;;;;;;;;5034894;28;20528;-51
2022/08/15 10:57:23;;;;;;;4.43;4.13;;;;;;;;;;5033545;28;20073;-58
2022/08/15 10:59:52;;;;;;;7.53;5.60;;;;;;;;;;5010548;28;20045;-60
2022/08/15 11:02:21;;;;;;;6.25;5.63;;;;;;;;;;5039052;28;20057;-54
2022/08/15 11:04:48;;;;;;;5.80;5.30;;;;;;;;;;5029602;28;20056;-59
2022/08/15 11:07:21;;;;;;;7.45;6.85;;;;;;;;;;5032538;28;20053;-56
2022/08/15 11:09:55;;;;;;;5.55;5.15;;;;;;;;;;5034579;28;20502;-57
2022/08/15 11:12:22;;;;;;;6.03;5.60;;;;;;;;;;5037588;28;20049;-58
2022/08/15 11:14:52;;;;;;;5.88;5.47;;;;;;;;;;5036602;28;20091;-62
2022/08/15 11:17:19;;;;;;;6.53;5.97;;;;;;;;;;5018537;28;20054;-55
2022/08/15 11:19:49;;;;;;;7.57;6.28;;;;;;;;;;5041127;28;20084;-54
2022/08/15 11:22:28;;;;;;;7.03;6.43;;;;;;;;;;5046849;28;20167;-54
2022/08/15 11:25:00;;;;;;;7.57;6.88;;;;;;;;;;5046116;28;20295;-54
2022/08/15 11:27:27;;;;;;;6.70;6.15;;;;;;;;;;5040130;28;20033;-53
2022/08/15 11:29:55;;;;;;;7.53;6.93;;;;;;;;;;5046294;28;20041;-54
2022/08/15 11:32:27;;;;;;;6.72;6.13;;;;;;;;;;5044011;28;20071;-58
2022/08/15 11:34:53;;;;;;;7.78;7.10;;;;;;;;;;5042253;28;20060;-55
2022/08/15 11:37:25;;;;;;;7.53;6.93;;;;;;;;;;5045513;28;20033;-56
2022/08/15 11:39:53;;;;;;;7.25;6.75;;;;;;;;;;5043984;28;20045;-60
2022/08/15 11:42:21;;;;;;;6.18;5.75;;;;;;;;;;5035534;28;20040;-56
2022/08/15 11:44:58;;;;;;;6.25;5.75;;;;;;;;;;5039511;28;20094;-60
2022/08/15 11:47:25;;;;;;;6.03;5.53;;;;;;;;;;5034910;28;20049;-57
2022/08/15 11:49:54;;;;;;;4.97;4.53;;;;;;;;;;5024192;28;20045;-58
2022/08/15 11:52:22;;;;;;;5.50;5.00;;;;;;;;;;5040496;28;20454;-62
2022/08/15 11:55:07;;;;;;;4.82;4.47;;;;;;;;;;5041943;28;20053;-59
2022/08/15 11:57:40;;;;;;;4.60;4.30;;;;;;;;;;5022220;28;20522;-56
2022/08/15 12:00:11;;;;;;;4.78;4.38;;;;;;;;;;5034173;28;20052;-54
2022/08/15 12:02:38;;;;;;;4.00;3.70;;;;;;;;;;5033036;28;20520;-55
2022/08/15 12:05:16;;;;;;;4.13;3.78;;;;;;;;;;5036124;28;20103;-53
2022/08/15 12:07:43;;;;;;;3.75;3.45;;;;;;;;;;5031967;28;20083;-56
2022/08/15 12:10:19;;;;;;;3.92;3.72;;;;;;;;;;5024843;28;20918;-54
2022/08/15 12:12:49;;;;;;;3.63;3.35;;;;;;;;;;5040897;28;20079;-61
2022/08/15 12:15:16;;;;;;;2.85;2.65;;;;;;;;;;5035489;28;20064;-56
2022/08/15 12:17:48;;;;;;;2.80;2.60;;;;;;;;;;5037712;28;20048;-53
2022/08/15 12:20:15;;;;;;;2.58;2.47;;;;;;;;;;5042196;28;20696;-56
2022/08/15 12:22:43;;;;;;;2.22;2.13;;;;;;;;;;5041064;28;20060;-55
2022/08/15 12:25:10;;;;;;;2.30;2.20;;;;;;;;;;5041960;28;20183;-59
2022/08/15 12:27:37;;;;;;;2.33;2.17;;;;;;;;;;5031061;28;20044;-60
2022/08/15 12:30:08;;;;;;;2.15;2.05;;;;;;;;;;5038535;28;20045;-53
2022/08/15 12:32:35;;;;;;;2.35;2.15;;;;;;;;;;5036448;28;20041;-54
2022/08/15 12:35:03;;;;;;;2.63;2.42;;;;;;;;;;5039985;28;20041;-54
2022/08/15 12:37:29;;;;;;;2.70;2.50;;;;;;;;;;5037350;28;20049;-56
2022/08/15 12:39:56;;;;;;;2.28;2.08;;;;;;;;;;5037495;28;20111;-55
2022/08/15 12:42:30;;;;;;;1.90;1.80;;;;;;;;;;5039848;28;20128;-59
2022/08/15 12:44:57;;;;;;;2.20;2.10;;;;;;;;;;5036739;28;20525;-53
2022/08/15 12:47:25;;;;;;;1.98;1.88;;;;;;;;;;5040375;28;20141;-51
2022/08/15 12:49:51;;;;;;;2.15;2.05;;;;;;;;;;5032243;28;20050;-58
2022/08/15 12:52:19;;;;;;;2.40;2.20;;;;;;;;;;5029234;28;20083;-52
2022/08/15 12:54:45;;;;;;;3.13;2.92;;;;;;;;;;5038468;28;20563;-61
2022/08/15 12:57:11;;;;;;;2.40;2.25;;;;;;;;;;5033189;28;20124;-52
2022/08/15 12:59:37;;;;;;;2.90;2.70;;;;;;;;;;5038307;28;20119;-56
2022/08/15 13:02:04;;;;;;;4.05;3.75;;;;;;;;;;5035334;28;20052;-56
2022/08/15 13:04:30;;;;;;;3.45;3.15;;;;;;;;;;5041338;28;20048;-55
2022/08/15 13:06:57;;;;;;;3.70;3.50;;;;;;;;;;5031697;28;20080;-56
2022/08/15 13:09:27;;;;;;;3.50;3.30;;;;;;;;;;5033388;28;20060;-54
2022/08/15 13:11:53;;;;;;;5.50;5.07;;;;;;;;;;5030353;28;20037;-54
2022/08/15 13:14:19;;;;;;;5.70;5.30;;;;;;;;;;5033016;28;20125;-53
2022/08/15 13:16:47;;;;;;;5.65;5.18;;;;;;;;;;5030629;28;20413;-58
2022/08/15 13:19:18;;;;;;;5.38;4.97;;;;;;;;;;5033304;28;20064;-53
2022/08/15 13:24:29;;;;;;;5.85;5.45;;;;;;;;;;5031489;28;20049;-59
2022/08/15 13:26:55;;;;;;;5.07;4.72;;;;;;;;;;5032678;28;20053;-59
2022/08/15 13:29:22;;;;;;;4.80;4.50;;;;;;;;;;5035462;28;20468;-60
2022/08/15 13:31:48;;;;;;;4.38;3.97;;;;;;;;;;5030997;28;20045;-55
2022/08/15 13:34:15;;;;;;;4.03;3.72;;;;;;;;;;5031387;28;20043;-55
2022/08/15 13:36:41;;;;;;;4.57;4.28;;;;;;;;;;5032482;28;20051;-56
2022/08/15 13:39:11;;;;;;;4.18;3.88;;;;;;;;;;5029374;28;20998;-56
2022/08/15 13:41:38;;;;;;;4.40;4.10;;;;;;;;;;5031017;28;20051;-52
2022/08/15 13:44:05;;;;;;;4.68;4.25;;;;;;;;;;5031936;28;20571;-56
2022/08/15 13:46:32;;;;;;;4.18;3.88;;;;;;;;;;5026776;28;20071;-55
2022/08/15 13:48:59;;;;;;;5.47;5.07;;;;;;;;;;5032907;28;20040;-59
2022/08/15 13:51:36;;;;;;;4.50;4.20;;;;;;;;;;5030079;28;20597;-62
2022/08/15 13:54:02;;;;;;;4.78;4.43;;;;;;;;;;5029688;28;20056;-57
2022/08/15 13:56:29;;;;;;;4.03;3.75;;;;;;;;;;5031019;28;20045;-52
2022/08/15 13:58:56;;;;;;;4.57;4.28;;;;;;;;;;5035154;28;20055;-56
2022/08/15 14:01:23;;;;;;;5.65;5.25;;;;;;;;;;5035484;28;20449;-56
2022/08/15 14:04:00;;;;;;;3.60;3.30;;;;;;;;;;5041186;28;20049;-53
2022/08/15 14:06:26;;;;;;;3.47;3.28;;;;;;;;;;5029707;28;20037;-56
2022/08/15 14:08:53;;;;;;;4.10;3.80;;;;;;;;;;5032461;28;20048;-58
2022/08/15 14:11:20;;;;;;;3.95;3.65;;;;;;;;;;5016134;28;20096;-56
2022/08/15 14:13:46;;;;;;;3.42;3.22;;;;;;;;;;5034426;28;20127;-59
2022/08/15 14:16:13;;;;;;;2.30;2.20;;;;;;;;;;5033392;28;20048;-54
2022/08/15 14:18:40;;;;;;;2.63;2.45;;;;;;;;;;5033145;28;20430;-59
2022/08/15 14:21:06;;;;;;;2.22;2.13;;;;;;;;;;5028352;28;20052;-59
2022/08/15 14:23:33;;;;;;;2.20;2.10;;;;;;;;;;5035398;28;20037;-54
2022/08/15 14:26:01;;;;;;;2.28;2.17;;;;;;;;;;5037072;28;20053;-61
2022/08/15 14:28:27;;;;;;;1.90;1.80;;;;;;;;;;5044413;28;20068;-53
2022/08/15 14:30:53;;;;;;;1.85;1.75;;;;;;;;;;5044766;28;20489;-57
2022/08/15 14:33:20;;;;;;;2.17;1.98;;;;;;;;;;5041046;28;20053;-54
2022/08/15 14:35:46;;;;;;;1.77;1.67;;;;;;;;;;5033499;28;20060;-60
2022/08/15 14:38:12;;;;;;;1.73;1.63;;;;;;;;;;5033813;28;20406;-56
2022/08/15 14:40:39;;;;;;;1.60;1.50;;;;;;;;;;5038343;28;20063;-61
2022/08/15 14:43:06;;;;;;;1.60;1.50;;;;;;;;;;5035263;28;20048;-55
2022/08/15 14:45:38;;;;;;;1.55;1.35;;;;;;;;;;5033820;28;20049;-56
2022/08/15 14:48:06;;;;;;;1.10;1.10;;;;;;;;;;5028013;28;20062;-59
2022/08/15 14:50:33;;;;;;;1.20;1.20;;;;;;;;;;5030502;28;20045;-53
2022/08/15 14:52:59;;;;;;;0.85;0.85;;;;;;;;;;5031454;28;20056;-56
2022/08/15 14:55:25;;;;;;;1.42;1.35;;;;;;;;;;5036794;28;21992;-60
2022/08/15 14:57:51;;;;;;;1.00;1.00;;;;;;;;;;5031808;28;20428;-59
2022/08/15 15:00:19;;;;;;;0.88;0.88;;;;;;;;;;5037970;28;20045;-63
2022/08/15 15:02:47;;;;;;;0.82;0.82;;;;;;;;;;5040285;28;20071;-59
2022/08/15 15:05:13;;;;;;;1.08;1.00;;;;;;;;;;5033747;28;20041;-59
2022/08/15 15:07:39;;;;;;;0.95;0.95;;;;;;;;;;5030227;28;20049;-54